Frenchville, ME (04745)

9:33 PM EDT on April 29, 2017 (GMT -0400)
K1FTK | | Change Station

Elev 825 ft 47.25 °N, 68.35 °W | Updated 3 minutes ago

Partly Cloudy
Partly Cloudy
38.8 °F
Feels Like 31 °F
N
13.0
Wind Variable Wind from NW
Gusts 13.0 mph

Today
High -- | Low -- °F
--% Chance of Precip.
Yesterday
High -- | Low -- °F
Precip. -- in
Pressure 29.94 in
Visibility 10.0 miles
Clouds Overcast 4700 ft
Windchill 31 °F
Dew Point 28 °F
Humidity 65%
Rainfall 0.00 in
Snow Depth Not available.
5:20 AM 7:42 PM
Waxing Crescent, 18% visible
METAR KFVE 300053Z AUTO 32023G38KT 10SM -RA OVC047 04/M05 A2992 RMK AO2 PK WND 31038/0045 RAB41 SLP136 P0000 T00391050
Pressure 29.94 in
Visibility 10.0 miles
Clouds Overcast 4700 ft
Windchill 31 °F
Dew Point 28 °F
Humidity 65%
Rainfall 0.00 in
Snow Depth Not available.
5:20 AM 7:42 PM
Waxing Crescent, 18% visible
METAR KFVE 300053Z AUTO 32023G38KT 10SM -RA OVC047 04/M05 A2992 RMK AO2 PK WND 31038/0045 RAB41 SLP136 P0000 T00391050

Get Severe Weather Alerts

Thanks for signing up!

Be on the lookout for a verification email in your inbox.

You'll start receiving the daily forecast at 8 AM.

×

10-Day Weather Forecast

Almanac

Astronomy

Apr. 29, 2017 Rise Set
Actual Time
Civil Twilight
Nautical Twilight
Astronomical Twilight
Moon
Length of Visible Light
Length of Day
Tomorrow will be .
, % of the Moon is Illuminated

Today's Extremes

State Highs State Lows

Community

WunderPhotos

WunderBlog® & News

Nearby

Air Quality

  Air Quality AQ Index Pollutant
Not available.

Snow Depth

Station Depth Elevation

Earthquake Activity

City Distance Mag. Time & Date
Minimum magnitude displayed is 2.5.

Coastal Water Temperatures

Place Temperature

Stations

Nearby Weather Stations

Station Location Temp. Windchill Dew Point Humidity Wind Precip. Elev Updated Type
                   

Watches & Warnings

There are currently no watches in effect.